createdAt,value
2017-03-26T00:00:11.778Z,91.57
2017-03-26T00:01:12.161Z,91.82
2017-03-26T00:02:12.692Z,92.27
2017-03-26T00:03:13.228Z,92.54
2017-03-26T00:04:13.765Z,92.30
2017-03-26T00:05:14.299Z,92.05
2017-03-26T00:06:14.830Z,91.86
2017-03-26T00:07:15.361Z,91.57
2017-03-26T00:08:15.899Z,91.17
2017-03-26T00:09:16.428Z,91.95
2017-03-26T00:10:16.961Z,93.67
2017-03-26T00:11:17.500Z,94.48
2017-03-26T00:12:18.021Z,94.42
2017-03-26T00:13:18.702Z,94.26
2017-03-26T00:14:19.086Z,94.26
2017-03-26T00:15:19.618Z,94.02
2017-03-26T00:16:20.156Z,93.48
2017-03-26T00:17:20.704Z,93.02
2017-03-26T00:18:21.227Z,92.78
2017-03-26T00:19:21.752Z,92.70
2017-03-26T00:20:22.293Z,92.89
2017-03-26T00:21:22.835Z,93.16
2017-03-26T00:22:23.365Z,93.24
2017-03-26T00:23:24.047Z,93.56
2017-03-26T00:24:24.430Z,94.29
2017-03-26T00:25:25.113Z,94.42
2017-03-26T00:26:25.496Z,94.48
2017-03-26T00:27:26.926Z,94.15
2017-03-26T00:28:26.567Z,93.96
2017-03-26T00:29:27.094Z,93.59
2017-03-26T00:30:27.630Z,94.45
2017-03-26T00:31:28.161Z,95.26
2017-03-26T00:32:28.695Z,94.50
2017-03-26T00:33:29.226Z,94.15
2017-03-26T00:34:29.762Z,94.18
2017-03-26T00:35:30.296Z,94.45
2017-03-26T00:36:30.831Z,94.53
2017-03-26T00:37:31.369Z,94.83
2017-03-26T00:38:31.895Z,94.56
2017-03-26T00:39:32.427Z,94.50
2017-03-26T00:40:32.958Z,94.77
2017-03-26T00:41:33.491Z,95.01
2017-03-26T00:42:34.027Z,95.15
2017-03-26T00:43:34.553Z,94.93
2017-03-26T00:44:35.089Z,94.61
2017-03-26T00:45:35.616Z,94.48
2017-03-26T00:46:36.151Z,94.67
2017-03-26T00:47:36.688Z,95.61
2017-03-26T00:48:37.219Z,95.34
2017-03-26T00:49:37.759Z,94.86
2017-03-26T00:50:38.288Z,94.21
2017-03-26T00:51:38.968Z,93.54
2017-03-26T00:52:39.350Z,93.05
2017-03-26T00:53:39.895Z,92.89
2017-03-26T00:54:40.419Z,93.18
2017-03-26T00:55:40.951Z,93.70
2017-03-26T00:56:41.485Z,93.85
2017-03-26T00:57:42.165Z,94.64
2017-03-26T00:58:42.545Z,95.04
2017-03-26T00:59:43.227Z,94.72
2017-03-26T01:00:43.612Z,94.56
2017-03-26T01:01:44.152Z,94.88
2017-03-26T01:02:44.690Z,96.15
2017-03-26T01:03:45.224Z,96.50
2017-03-26T01:04:45.761Z,96.13
2017-03-26T01:05:46.299Z,95.75
2017-03-26T01:06:46.834Z,95.45
2017-03-26T01:07:47.365Z,95.37
2017-03-26T01:08:47.903Z,95.88
2017-03-26T01:09:48.431Z,95.98
2017-03-26T01:10:48.967Z,95.75
2017-03-26T01:11:49.504Z,95.69
2017-03-26T01:12:50.033Z,95.75
2017-03-26T01:13:50.567Z,95.69
2017-03-26T01:14:51.096Z,95.47
2017-03-26T01:15:51.634Z,95.26
2017-03-26T01:16:52.161Z,94.93
2017-03-26T01:17:52.848Z,94.56
2017-03-26T01:18:53.229Z,94.61
2017-03-26T01:19:53.759Z,94.80
2017-03-26T01:20:54.297Z,95.45
2017-03-26T01:21:54.824Z,95.50
2017-03-26T01:22:55.358Z,95.28
2017-03-26T01:23:55.892Z,95.47
2017-03-26T01:24:56.579Z,96.13
2017-03-26T01:25:56.959Z,96.47
2017-03-26T01:26:57.493Z,96.55
2017-03-26T01:27:58.026Z,96.58
2017-03-26T01:28:58.561Z,96.80
2017-03-26T01:29:59.089Z,96.72
2017-03-26T01:30:59.628Z,96.58
2017-03-26T01:32:00.159Z,96.45
2017-03-26T01:33:00.834Z,95.96
2017-03-26T01:34:01.221Z,96.69
2017-03-26T01:35:01.745Z,97.18
2017-03-26T01:36:02.282Z,97.39
2017-03-26T01:37:02.814Z,97.50
2017-03-26T01:38:03.381Z,97.31
2017-03-26T01:39:03.877Z,97.45
2017-03-26T01:40:04.411Z,97.39
2017-03-26T01:41:04.938Z,97.31
2017-03-26T01:42:05.471Z,97.47
2017-03-26T01:43:06.009Z,97.58
2017-03-26T01:44:06.559Z,97.23
2017-03-26T01:45:07.082Z,96.99
2017-03-26T01:46:07.617Z,96.83
2017-03-26T01:47:08.152Z,96.88
2017-03-26T01:48:08.685Z,96.66
2017-03-26T01:49:09.231Z,96.42
2017-03-26T01:50:09.753Z,96.58
2017-03-26T01:51:10.288Z,96.58
2017-03-26T01:52:10.819Z,96.93
2017-03-26T01:53:11.366Z,96.85
2017-03-26T01:54:11.883Z,96.80
2017-03-26T01:55:12.413Z,96.85
2017-03-26T01:56:12.946Z,97.26
2017-03-26T01:57:13.479Z,97.42
2017-03-26T01:58:14.008Z,97.66
2017-03-26T01:59:14.543Z,97.88
2017-03-26T02:00:15.076Z,97.77
2017-03-26T02:01:15.611Z,97.47
2017-03-26T02:02:16.145Z,96.93
2017-03-26T02:03:16.681Z,96.69
2017-03-26T02:04:17.207Z,96.50
2017-03-26T02:05:17.743Z,96.15
2017-03-26T02:06:18.283Z,95.75
2017-03-26T02:07:18.806Z,95.39
2017-03-26T02:08:19.341Z,95.07
2017-03-26T02:09:19.874Z,95.69
2017-03-26T02:10:20.406Z,96.28
2017-03-26T02:11:20.936Z,96.85
2017-03-26T02:12:21.492Z,96.91
2017-03-26T02:13:22.003Z,97.07
2017-03-26T02:14:22.546Z,97.04
2017-03-26T02:15:23.068Z,97.12
2017-03-26T02:16:23.601Z,97.12
2017-03-26T02:17:24.134Z,97.02
2017-03-26T02:18:24.679Z,96.85
2017-03-26T02:19:25.205Z,96.77
2017-03-26T02:20:25.735Z,96.85
2017-03-26T02:21:26.267Z,96.85
2017-03-26T02:22:26.799Z,96.77
2017-03-26T02:23:27.336Z,96.55
2017-03-26T02:24:27.866Z,96.55
2017-03-26T02:25:28.404Z,97.10
2017-03-26T02:26:28.945Z,97.88
2017-03-26T02:27:29.481Z,98.34
2017-03-26T02:28:30.009Z,98.42
2017-03-26T02:29:30.541Z,98.45
2017-03-26T02:30:31.086Z,98.40
2017-03-26T02:31:31.607Z,98.45
2017-03-26T02:32:32.140Z,98.53
2017-03-26T02:33:32.683Z,98.72
2017-03-26T02:34:33.206Z,98.77
2017-03-26T02:35:33.748Z,98.85
2017-03-26T02:36:34.440Z,98.85
2017-03-26T02:37:34.815Z,98.94
2017-03-26T02:38:35.341Z,99.04
2017-03-26T02:39:35.878Z,99.07
2017-03-26T02:40:36.405Z,99.04
2017-03-26T02:41:36.940Z,99.02
2017-03-26T02:42:37.465Z,99.07
2017-03-26T02:43:38.005Z,99.23
2017-03-26T02:44:38.569Z,99.32
2017-03-26T02:45:39.073Z,99.37
2017-03-26T02:46:39.603Z,99.40
2017-03-26T02:47:40.137Z,99.34
2017-03-26T02:48:40.668Z,99.34
2017-03-26T02:49:41.203Z,99.32
2017-03-26T02:50:41.732Z,99.21
2017-03-26T02:51:42.272Z,99.10
2017-03-26T02:52:42.798Z,99.10
2017-03-26T02:53:43.329Z,98.99
2017-03-26T02:54:43.860Z,98.85
2017-03-26T02:55:44.396Z,98.85
2017-03-26T02:56:44.922Z,99.10
2017-03-26T02:57:45.456Z,99.07
2017-03-26T02:58:45.990Z,99.07
2017-03-26T02:59:46.525Z,99.07
2017-03-26T03:00:47.060Z,99.02
2017-03-26T03:01:47.589Z,99.04
2017-03-26T03:02:48.119Z,99.13
2017-03-26T03:03:48.652Z,99.29
2017-03-26T03:04:49.188Z,99.43
2017-03-26T03:05:49.723Z,99.53
2017-03-26T03:06:50.404Z,99.94
2017-03-26T03:07:50.794Z,99.94
2017-03-26T03:08:51.335Z,99.99
2017-03-26T03:09:51.869Z,99.99
2017-03-26T03:10:52.408Z,99.99
2017-03-26T03:11:52.946Z,99.99
2017-03-26T03:12:53.482Z,99.99
2017-03-26T03:13:54.005Z,99.99
2017-03-26T03:14:54.533Z,99.99
2017-03-26T03:15:55.064Z,99.99
2017-03-26T03:16:55.595Z,99.99
2017-03-26T03:17:56.129Z,99.99
2017-03-26T03:18:56.661Z,99.99
2017-03-26T03:19:57.195Z,99.99
2017-03-26T03:20:57.723Z,99.99
2017-03-26T03:21:58.256Z,99.99
2017-03-26T03:22:58.785Z,99.99
2017-03-26T03:23:59.322Z,99.99
2017-03-26T03:25:00.003Z,99.99
2017-03-26T03:26:00.385Z,99.99
2017-03-26T03:27:00.926Z,99.99
2017-03-26T03:28:01.462Z,99.99
2017-03-26T03:29:01.993Z,99.99
2017-03-26T03:30:02.518Z,99.99
2017-03-26T03:31:03.198Z,99.99
2017-03-26T03:32:03.581Z,99.99
2017-03-26T03:33:04.122Z,99.92
2017-03-26T03:34:04.653Z,99.92
2017-03-26T03:35:05.184Z,99.92
2017-03-26T03:36:05.715Z,99.94
2017-03-26T03:37:06.247Z,99.92
2017-03-26T03:38:06.785Z,99.96
2017-03-26T03:39:07.314Z,99.99
2017-03-26T03:40:07.839Z,99.99
2017-03-26T03:41:08.372Z,99.99
2017-03-26T03:42:08.905Z,99.99
2017-03-26T03:43:09.434Z,99.99
2017-03-26T03:44:09.970Z,99.99
2017-03-26T03:45:10.502Z,99.99
2017-03-26T03:46:11.035Z,99.99
2017-03-26T03:47:11.569Z,99.99
2017-03-26T03:48:12.253Z,99.99
2017-03-26T03:49:12.646Z,99.99
2017-03-26T03:50:13.176Z,99.99
2017-03-26T03:51:13.716Z,99.99
2017-03-26T03:52:14.251Z,99.99
2017-03-26T03:53:14.846Z,99.99
2017-03-26T03:54:15.318Z,99.99
2017-03-26T03:55:15.860Z,99.99
2017-03-26T03:56:16.532Z,99.99
2017-03-26T03:57:16.921Z,99.99
2017-03-26T03:58:17.455Z,99.99
2017-03-26T03:59:17.983Z,99.99
2017-03-26T04:00:18.660Z,99.99
2017-03-26T04:01:19.047Z,99.99
2017-03-26T04:02:19.584Z,99.99
2017-03-26T04:03:20.119Z,99.99
2017-03-26T04:04:20.655Z,99.99
2017-03-26T04:05:21.181Z,99.99
2017-03-26T04:06:21.712Z,99.99
2017-03-26T04:07:22.269Z,99.99
2017-03-26T04:08:22.782Z,99.99
2017-03-26T04:09:23.320Z,99.99
2017-03-26T04:10:23.846Z,99.99
2017-03-26T04:11:24.376Z,99.99
2017-03-26T04:12:24.908Z,99.99
2017-03-26T04:13:25.439Z,99.99
2017-03-26T04:14:25.973Z,99.99
2017-03-26T04:15:26.502Z,99.99
2017-03-26T04:16:27.035Z,99.99
2017-03-26T04:17:27.603Z,99.99
2017-03-26T04:18:28.103Z,99.99
2017-03-26T04:19:28.640Z,99.99
2017-03-26T04:20:29.169Z,99.99
2017-03-26T04:21:29.699Z,99.99
2017-03-26T04:22:30.231Z,99.99
2017-03-26T04:23:30.766Z,99.99
2017-03-26T04:24:31.295Z,99.99
2017-03-26T04:25:31.823Z,99.99
2017-03-26T04:26:32.356Z,99.99
2017-03-26T04:27:32.886Z,99.99
2017-03-26T04:28:33.418Z,99.99
2017-03-26T04:29:33.948Z,99.99
2017-03-26T04:30:34.493Z,99.99
2017-03-26T04:31:35.022Z,99.99
2017-03-26T04:32:35.561Z,99.99
2017-03-26T04:33:36.097Z,99.99
2017-03-26T04:34:36.633Z,99.99
2017-03-26T04:35:37.181Z,99.99
2017-03-26T04:36:37.696Z,99.99
2017-03-26T04:37:38.235Z,99.99
2017-03-26T04:38:38.762Z,99.99
2017-03-26T04:39:39.304Z,99.99
2017-03-26T04:40:39.831Z,99.99
2017-03-26T04:41:40.364Z,99.99
2017-03-26T04:42:40.900Z,99.99
2017-03-26T04:43:41.434Z,99.99
2017-03-26T04:44:41.962Z,99.99
2017-03-26T04:45:42.488Z,99.99
2017-03-26T04:46:43.029Z,99.99
2017-03-26T04:47:43.556Z,99.99
2017-03-26T04:48:44.092Z,99.99
2017-03-26T04:49:44.623Z,99.99
2017-03-26T04:50:45.157Z,99.99
2017-03-26T04:51:45.706Z,99.99
2017-03-26T04:52:46.371Z,99.99
2017-03-26T04:53:46.771Z,99.99
2017-03-26T04:54:47.291Z,99.99
2017-03-26T04:55:47.828Z,99.99
2017-03-26T04:56:48.362Z,99.99
2017-03-26T04:57:48.895Z,99.99
2017-03-26T04:58:49.429Z,99.99
2017-03-26T04:59:49.967Z,99.99
2017-03-26T05:00:50.487Z,99.99
2017-03-26T05:01:51.030Z,99.99
2017-03-26T05:02:51.557Z,99.99
2017-03-26T05:03:52.090Z,99.99
2017-03-26T05:04:52.620Z,99.99
2017-03-26T05:05:53.149Z,99.99
2017-03-26T05:06:53.686Z,99.99
2017-03-26T05:07:54.219Z,99.99
2017-03-26T05:08:54.750Z,99.99
2017-03-26T05:09:55.282Z,99.99
2017-03-26T05:10:55.815Z,99.99
2017-03-26T05:11:56.345Z,99.99
2017-03-26T05:12:56.889Z,99.99
2017-03-26T05:13:57.421Z,99.99
2017-03-26T05:14:57.961Z,99.99
2017-03-26T05:15:58.639Z,99.99
2017-03-26T05:16:59.025Z,99.99
2017-03-26T05:17:59.558Z,99.99
2017-03-26T05:19:00.090Z,99.99
2017-03-26T05:20:00.769Z,99.99
2017-03-26T05:21:01.161Z,99.99
2017-03-26T05:22:01.694Z,99.99
2017-03-26T05:23:02.216Z,99.99
2017-03-26T05:24:02.749Z,99.99
2017-03-26T05:25:03.287Z,99.99
2017-03-26T05:26:03.813Z,99.99
2017-03-26T05:27:04.344Z,99.99
2017-03-26T05:28:04.878Z,99.99
2017-03-26T05:29:05.412Z,99.99
2017-03-26T05:30:05.944Z,99.99
2017-03-26T05:31:06.473Z,99.99
2017-03-26T05:32:07.021Z,99.99
2017-03-26T05:33:07.549Z,99.99
2017-03-26T05:34:08.068Z,99.99
2017-03-26T05:35:08.599Z,99.99
2017-03-26T05:36:09.285Z,99.99
2017-03-26T05:37:09.674Z,99.99
2017-03-26T05:38:10.196Z,99.99
2017-03-26T05:39:10.731Z,99.99
2017-03-26T05:40:11.272Z,99.99
2017-03-26T05:41:11.800Z,99.99
2017-03-26T05:42:12.330Z,99.99
2017-03-26T05:43:12.866Z,99.99
2017-03-26T05:44:13.399Z,99.99
2017-03-26T05:45:13.933Z,99.99
2017-03-26T05:46:14.464Z,99.99
2017-03-26T05:47:14.996Z,99.99
2017-03-26T05:48:15.530Z,99.99
2017-03-26T05:49:16.069Z,99.99
2017-03-26T05:50:16.593Z,99.99
2017-03-26T05:51:17.135Z,99.99
2017-03-26T05:52:17.664Z,99.99
2017-03-26T05:53:18.198Z,99.99
2017-03-26T05:54:18.741Z,99.99
2017-03-26T05:55:19.273Z,99.99
2017-03-26T05:56:19.814Z,99.99
2017-03-26T05:57:20.340Z,99.99
2017-03-26T05:58:21.026Z,99.99
2017-03-26T05:59:21.409Z,99.99
2017-03-26T06:00:21.940Z,99.99
2017-03-26T06:01:22.473Z,99.99
2017-03-26T06:02:23.004Z,99.99
2017-03-26T06:03:23.540Z,99.99
2017-03-26T06:04:24.067Z,99.99
2017-03-26T06:05:24.602Z,99.99
2017-03-26T06:06:25.135Z,99.99
2017-03-26T06:07:25.664Z,99.99
2017-03-26T06:08:26.198Z,99.99
2017-03-26T06:09:26.729Z,99.99
2017-03-26T06:10:27.269Z,99.99
2017-03-26T06:11:27.812Z,99.99
2017-03-26T06:12:28.493Z,99.99
2017-03-26T06:13:28.882Z,99.99
2017-03-26T06:14:29.423Z,99.99
2017-03-26T06:15:29.959Z,99.99
2017-03-26T06:16:30.494Z,99.99
2017-03-26T06:17:31.021Z,99.99
2017-03-26T06:18:31.555Z,99.99
2017-03-26T06:19:32.239Z,99.99
2017-03-26T06:20:32.621Z,99.99
2017-03-26T06:21:33.147Z,99.99
2017-03-26T06:22:33.685Z,99.99
2017-03-26T06:23:34.211Z,99.99
2017-03-26T06:24:34.743Z,99.99
2017-03-26T06:25:35.276Z,99.99
2017-03-26T06:26:36.105Z,99.99
2017-03-26T06:27:36.340Z,99.99
2017-03-26T06:28:36.879Z,99.99
2017-03-26T06:29:37.406Z,99.99
2017-03-26T06:30:37.940Z,99.99
2017-03-26T06:31:38.472Z,99.99
2017-03-26T06:32:39.000Z,99.99
2017-03-26T06:33:39.535Z,99.99
2017-03-26T06:34:40.070Z,99.99
2017-03-26T06:35:40.607Z,99.99
2017-03-26T06:36:41.143Z,99.99
2017-03-26T06:37:41.680Z,99.99
2017-03-26T06:38:42.217Z,99.99
2017-03-26T06:40:43.284Z,99.99
2017-03-26T06:41:43.823Z,99.99
2017-03-26T06:42:44.349Z,99.99
2017-03-26T06:43:44.883Z,99.99
2017-03-26T06:44:45.413Z,99.99
2017-03-26T06:45:45.941Z,99.99
2017-03-26T06:46:46.479Z,99.99
2017-03-26T06:47:47.007Z,99.99
2017-03-26T06:48:47.534Z,99.99
2017-03-26T06:49:48.074Z,99.99
2017-03-26T06:50:48.598Z,99.99
2017-03-26T06:51:49.131Z,99.99
2017-03-26T06:52:49.661Z,99.99
2017-03-26T06:53:50.209Z,99.99
2017-03-26T06:54:50.730Z,99.99
2017-03-26T06:55:51.259Z,99.99
2017-03-26T06:56:51.942Z,99.99
2017-03-26T06:57:52.323Z,99.99
2017-03-26T06:58:53.006Z,99.40
2017-03-26T07:00:53.930Z,97.69
2017-03-26T07:01:54.456Z,96.77
2017-03-26T07:02:54.994Z,95.23
2017-03-26T07:03:55.528Z,92.51
2017-03-26T07:04:56.055Z,91.65
2017-03-26T07:05:56.584Z,91.14
2017-03-26T07:06:57.111Z,90.39
2017-03-26T07:07:57.650Z,90.45
2017-03-26T07:08:58.173Z,89.72
2017-03-26T07:09:58.708Z,88.89
2017-03-26T07:10:59.237Z,89.45
2017-03-26T07:11:59.777Z,89.19
2017-03-26T07:13:00.305Z,87.56
2017-03-26T07:14:00.840Z,87.64
2017-03-26T07:15:01.373Z,87.82
2017-03-26T07:16:01.903Z,87.00
2017-03-26T07:17:02.435Z,86.91
2017-03-26T07:18:02.973Z,85.66
2017-03-26T07:19:03.513Z,87.48
2017-03-26T07:20:04.044Z,86.28
2017-03-26T07:21:04.730Z,85.30
2017-03-26T07:22:05.124Z,84.76
2017-03-26T07:23:05.646Z,84.09
2017-03-26T07:24:06.185Z,84.60
2017-03-26T07:25:06.709Z,86.09
2017-03-26T07:26:07.245Z,83.78
2017-03-26T07:27:07.781Z,82.61
2017-03-26T07:28:08.315Z,83.51
2017-03-26T07:29:08.856Z,83.40
2017-03-26T07:30:09.522Z,81.71
2017-03-26T07:31:09.921Z,81.66
2017-03-26T07:32:10.444Z,82.56
2017-03-26T07:33:10.975Z,83.22
2017-03-26T07:34:11.508Z,83.97
2017-03-26T07:35:12.190Z,83.28
2017-03-26T07:36:12.575Z,82.61
2017-03-26T07:37:13.109Z,82.85
2017-03-26T07:38:13.789Z,82.11
2017-03-26T07:39:14.174Z,82.67
2017-03-26T07:40:14.704Z,81.58
2017-03-26T07:41:15.242Z,82.35
2017-03-26T07:42:15.776Z,81.32
2017-03-26T07:43:16.301Z,79.36
2017-03-26T07:44:16.834Z,80.05
2017-03-26T07:45:17.374Z,79.36
2017-03-26T07:46:17.901Z,77.75
2017-03-26T07:47:18.431Z,78.97
2017-03-26T07:48:18.967Z,77.86
2017-03-26T07:49:19.643Z,77.17
2017-03-26T07:50:20.028Z,77.89
2017-03-26T07:51:20.557Z,76.23
2017-03-26T07:52:21.096Z,77.39
2017-03-26T07:53:21.624Z,75.96
2017-03-26T07:54:22.159Z,76.60
2017-03-26T07:55:22.687Z,76.02
2017-03-26T07:56:23.222Z,76.12
2017-03-26T07:57:24.062Z,77.25
2017-03-26T07:58:24.286Z,76.46
2017-03-26T07:59:24.818Z,76.18
2017-03-26T08:00:25.355Z,77.44
2017-03-26T08:01:25.908Z,75.73
2017-03-26T08:02:26.430Z,75.94
2017-03-26T08:03:27.112Z,75.21
2017-03-26T08:04:27.497Z,76.70
2017-03-26T08:05:28.030Z,74.94
2017-03-26T08:06:28.562Z,76.15
2017-03-26T08:07:29.094Z,74.36
2017-03-26T08:08:29.639Z,74.94
2017-03-26T08:09:30.168Z,75.23
2017-03-26T08:10:30.697Z,76.91
2017-03-26T08:11:31.230Z,75.60
2017-03-26T08:12:31.758Z,74.97
2017-03-26T08:13:32.289Z,73.50
2017-03-26T08:14:32.826Z,72.88
2017-03-26T08:15:33.351Z,73.30
2017-03-26T08:16:33.890Z,73.22
2017-03-26T08:17:34.573Z,75.60
2017-03-26T08:18:34.954Z,73.58
2017-03-26T08:19:35.484Z,73.50
2017-03-26T08:20:36.016Z,72.41
2017-03-26T08:21:36.552Z,70.27
2017-03-26T08:22:37.116Z,72.69
2017-03-26T08:23:37.612Z,70.68
2017-03-26T08:24:38.153Z,71.10
2017-03-26T08:25:38.684Z,66.50
2017-03-26T08:26:39.217Z,66.35
2017-03-26T08:27:39.753Z,66.95
2017-03-26T08:28:40.285Z,68.08
2017-03-26T08:29:40.817Z,68.32
2017-03-26T08:30:41.353Z,68.11
2017-03-26T08:31:41.898Z,66.30
2017-03-26T08:32:42.423Z,65.34
2017-03-26T08:33:42.963Z,66.50
2017-03-26T08:34:43.484Z,65.11
2017-03-26T08:35:44.031Z,65.45
2017-03-26T08:36:44.554Z,63.77
2017-03-26T08:37:45.099Z,66.20
2017-03-26T08:38:45.620Z,64.05
2017-03-26T08:39:46.157Z,63.02
2017-03-26T08:40:46.693Z,62.94
2017-03-26T08:41:47.242Z,64.80
2017-03-26T08:42:47.769Z,62.79
2017-03-26T08:43:48.295Z,64.78
2017-03-26T08:44:48.836Z,64.54
2017-03-26T08:45:49.368Z,61.61
2017-03-26T08:46:50.049Z,62.99
2017-03-26T08:47:50.434Z,63.35
2017-03-26T08:48:50.975Z,62.87
2017-03-26T08:49:51.652Z,64.90
2017-03-26T08:50:52.031Z,66.01
2017-03-26T08:51:52.563Z,60.78
2017-03-26T08:52:53.102Z,60.86
2017-03-26T08:53:53.782Z,63.13
2017-03-26T08:54:54.165Z,62.43
2017-03-26T08:55:54.698Z,62.30
2017-03-26T08:56:55.232Z,60.09
2017-03-26T08:57:55.770Z,58.94
2017-03-26T08:58:56.298Z,62.07
2017-03-26T08:59:56.827Z,60.40
2017-03-26T09:00:57.368Z,56.97
2017-03-26T09:01:57.893Z,58.27
2017-03-26T09:02:58.431Z,58.33
2017-03-26T09:03:58.962Z,57.13
2017-03-26T09:04:59.492Z,54.00
2017-03-26T09:06:00.028Z,57.69
2017-03-26T09:07:00.557Z,54.71
2017-03-26T09:08:01.089Z,55.42
2017-03-26T09:09:01.637Z,56.77
2017-03-26T09:10:02.153Z,55.45
2017-03-26T09:11:02.685Z,57.38
2017-03-26T09:12:03.219Z,53.90
2017-03-26T09:13:03.751Z,53.67
2017-03-26T09:14:04.298Z,53.47
2017-03-26T09:15:04.820Z,56.18
2017-03-26T09:16:05.362Z,52.27
2017-03-26T09:17:05.883Z,52.57
2017-03-26T09:18:06.415Z,50.07
2017-03-26T09:19:06.951Z,48.86
2017-03-26T09:20:07.479Z,48.97
2017-03-26T09:21:08.019Z,49.95
2017-03-26T09:22:08.549Z,51.19
2017-03-26T09:23:09.092Z,49.52
2017-03-26T09:24:09.626Z,51.92
2017-03-26T09:25:10.160Z,50.83
2017-03-26T09:26:10.700Z,49.47
2017-03-26T09:27:11.228Z,51.19
2017-03-26T09:28:11.761Z,48.99
2017-03-26T09:29:12.457Z,49.32
2017-03-26T09:30:12.821Z,51.21
2017-03-26T09:31:13.354Z,51.77
2017-03-26T09:32:13.897Z,52.35
2017-03-26T09:33:14.419Z,53.95
2017-03-26T09:34:14.947Z,48.31
2017-03-26T09:35:15.482Z,48.31
2017-03-26T09:36:16.011Z,49.24
2017-03-26T09:37:16.551Z,49.12
2017-03-26T09:38:17.076Z,49.34
2017-03-26T09:39:17.609Z,49.85
2017-03-26T09:40:18.149Z,50.22
2017-03-26T09:41:18.675Z,50.83
2017-03-26T09:42:19.205Z,50.50
2017-03-26T09:43:19.744Z,47.53
2017-03-26T09:44:20.271Z,48.54
2017-03-26T09:45:20.808Z,48.36
2017-03-26T09:46:21.339Z,49.04
2017-03-26T09:47:21.869Z,49.95
2017-03-26T09:48:22.403Z,47.61
2017-03-26T09:49:22.936Z,47.88
2017-03-26T09:50:23.475Z,48.51
2017-03-26T09:51:23.996Z,48.84
2017-03-26T09:52:24.531Z,49.72
2017-03-26T09:53:25.065Z,49.04
2017-03-26T09:54:25.595Z,48.61
2017-03-26T09:55:26.122Z,47.45
2017-03-26T09:56:26.654Z,47.76
2017-03-26T09:57:27.190Z,48.11
2017-03-26T09:58:27.720Z,47.28
2017-03-26T09:59:28.266Z,47.51
2017-03-26T10:00:28.793Z,48.11
2017-03-26T10:01:29.324Z,49.12
2017-03-26T10:02:29.857Z,48.08
2017-03-26T10:03:32.342Z,46.15
2017-03-26T10:04:30.926Z,47.58
2017-03-26T10:05:31.465Z,45.62
2017-03-26T10:06:31.999Z,47.18
2017-03-26T10:07:32.538Z,45.80
2017-03-26T10:08:33.077Z,42.35
2017-03-26T10:09:33.605Z,43.65
2017-03-26T10:10:34.142Z,46.20
2017-03-26T10:11:34.673Z,46.10
2017-03-26T10:12:35.199Z,46.50
2017-03-26T10:13:35.752Z,45.45
2017-03-26T10:14:36.261Z,42.62
2017-03-26T10:15:36.812Z,45.65
2017-03-26T10:16:37.331Z,44.00
2017-03-26T10:17:38.007Z,44.50
2017-03-26T10:18:38.390Z,45.05
2017-03-26T10:19:38.926Z,44.30
2017-03-26T10:20:39.456Z,49.22
2017-03-26T10:21:39.987Z,42.92
2017-03-26T10:22:40.529Z,42.55
2017-03-26T10:23:41.055Z,42.33
2017-03-26T10:24:41.585Z,43.57
2017-03-26T10:25:42.119Z,42.18
2017-03-26T10:26:42.647Z,41.58
2017-03-26T10:27:43.186Z,43.02
2017-03-26T10:28:43.710Z,45.15
2017-03-26T10:29:44.253Z,43.27
2017-03-26T10:30:44.925Z,42.18
2017-03-26T10:31:45.319Z,41.75
2017-03-26T10:32:45.848Z,42.15
2017-03-26T10:33:46.379Z,43.25
2017-03-26T10:34:47.059Z,43.20
2017-03-26T10:35:47.443Z,40.26
2017-03-26T10:36:47.971Z,43.33
2017-03-26T10:37:48.540Z,42.97
2017-03-26T10:38:49.037Z,42.60
2017-03-26T10:39:49.568Z,41.61
2017-03-26T10:40:50.097Z,42.37
2017-03-26T10:41:50.633Z,42.10
2017-03-26T10:42:51.162Z,39.96
2017-03-26T10:43:51.720Z,40.19
2017-03-26T10:44:52.234Z,46.81
2017-03-26T10:45:52.772Z,41.56
2017-03-26T10:46:53.452Z,41.31
2017-03-26T10:47:53.841Z,44.25
2017-03-26T10:48:54.390Z,43.67
2017-03-26T10:49:54.917Z,46.38
2017-03-26T10:50:55.592Z,43.08
2017-03-26T10:51:55.979Z,40.54
2017-03-26T10:52:56.511Z,39.24
2017-03-26T10:53:57.043Z,43.10
2017-03-26T10:54:57.580Z,41.95
2017-03-26T10:55:58.108Z,40.29
2017-03-26T10:56:58.640Z,40.73
2017-03-26T10:57:59.168Z,38.80
2017-03-26T10:58:59.997Z,39.02
2017-03-26T11:00:00.234Z,39.47
2017-03-26T11:01:00.767Z,39.64
2017-03-26T11:02:01.302Z,38.92
2017-03-26T11:03:01.842Z,38.47
2017-03-26T11:04:02.364Z,41.70
2017-03-26T11:05:02.899Z,43.65
2017-03-26T11:06:03.436Z,38.25
2017-03-26T11:07:03.969Z,38.47
2017-03-26T11:08:04.494Z,38.21
2017-03-26T11:09:05.028Z,38.40
2017-03-26T11:10:05.558Z,39.62
2017-03-26T11:11:06.098Z,37.83
2017-03-26T11:12:06.622Z,37.46
2017-03-26T11:13:07.152Z,37.09
2017-03-26T11:14:07.687Z,37.24
2017-03-26T11:15:08.213Z,37.09
2017-03-26T11:16:08.746Z,36.11
2017-03-26T11:17:09.279Z,37.56
2017-03-26T11:18:09.816Z,37.61
2017-03-26T11:19:10.349Z,38.23
2017-03-26T11:20:11.105Z,40.83
2017-03-26T11:21:11.407Z,38.70
2017-03-26T11:22:11.936Z,38.60
2017-03-26T11:23:12.468Z,37.68
2017-03-26T11:24:12.998Z,38.15
2017-03-26T11:25:13.529Z,38.68
2017-03-26T11:26:14.067Z,41.43
2017-03-26T11:27:14.750Z,40.11
2017-03-26T11:28:15.147Z,38.99
2017-03-26T11:29:15.689Z,39.44
2017-03-26T11:30:16.231Z,42.08
2017-03-26T11:31:16.765Z,39.49
2017-03-26T11:32:17.445Z,38.94
2017-03-26T11:33:17.834Z,38.35
2017-03-26T11:34:18.363Z,39.79
2017-03-26T11:35:18.901Z,38.55
2017-03-26T11:36:19.433Z,36.72
2017-03-26T11:37:19.960Z,40.29
2017-03-26T11:38:20.791Z,39.44
2017-03-26T11:39:21.027Z,38.97
2017-03-26T11:40:21.557Z,39.96
2017-03-26T11:41:22.097Z,39.52
2017-03-26T11:42:22.622Z,38.92
2017-03-26T11:43:23.305Z,37.56
2017-03-26T11:44:23.690Z,38.15
2017-03-26T11:45:24.225Z,38.30
2017-03-26T11:46:24.746Z,38.45
2017-03-26T11:47:25.297Z,38.00
2017-03-26T11:48:25.817Z,36.50
2017-03-26T11:49:26.356Z,37.16
2017-03-26T11:50:26.889Z,37.81
2017-03-26T11:51:27.415Z,36.45
2017-03-26T11:52:27.951Z,38.23
2017-03-26T11:53:28.485Z,42.83
2017-03-26T11:54:29.018Z,39.87
2017-03-26T11:55:29.561Z,40.04
2017-03-26T11:56:30.081Z,39.15
2017-03-26T11:57:30.614Z,38.68
2017-03-26T11:58:31.150Z,36.84
2017-03-26T11:59:31.686Z,38.99
2017-03-26T12:00:32.210Z,41.06
2017-03-26T12:01:32.743Z,35.39
2017-03-26T12:02:33.279Z,36.28
2017-03-26T12:03:33.819Z,37.58
2017-03-26T12:04:34.341Z,38.55
2017-03-26T12:05:34.874Z,36.80
2017-03-26T12:06:35.402Z,41.78
2017-03-26T12:07:35.933Z,37.34
2017-03-26T12:08:36.476Z,34.40
2017-03-26T12:09:37.006Z,37.34
2017-03-26T12:10:37.546Z,36.47
2017-03-26T12:11:38.095Z,34.92
2017-03-26T12:12:38.615Z,35.26
2017-03-26T12:13:39.152Z,36.72
2017-03-26T12:14:39.681Z,36.75
2017-03-26T12:15:40.215Z,37.46
2017-03-26T12:16:40.746Z,36.00
2017-03-26T12:17:41.280Z,36.89
2017-03-26T12:18:41.823Z,37.44
2017-03-26T12:19:42.339Z,36.50
2017-03-26T12:20:42.871Z,35.76
2017-03-26T12:21:43.400Z,36.08
2017-03-26T12:22:43.950Z,36.82
2017-03-26T12:23:44.470Z,36.94
2017-03-26T12:24:45.005Z,34.16
2017-03-26T12:25:45.551Z,33.44
2017-03-26T12:26:46.073Z,34.06
2017-03-26T12:27:46.616Z,34.87
2017-03-26T12:28:47.138Z,35.04
2017-03-26T12:29:47.670Z,34.28
2017-03-26T12:30:48.202Z,34.77
2017-03-26T12:31:48.733Z,36.35
2017-03-26T12:32:49.271Z,35.19
2017-03-26T12:33:49.801Z,35.76
2017-03-26T12:34:50.340Z,35.71
2017-03-26T12:35:50.874Z,35.46
2017-03-26T12:36:51.402Z,35.07
2017-03-26T12:37:51.952Z,36.40
2017-03-26T12:38:52.472Z,35.64
2017-03-26T12:39:53.012Z,37.16
2017-03-26T12:40:53.536Z,36.70
2017-03-26T12:41:54.070Z,37.09
2017-03-26T12:42:54.750Z,36.75
2017-03-26T12:43:55.132Z,37.51
2017-03-26T12:44:55.668Z,36.03
2017-03-26T12:45:56.195Z,34.95
2017-03-26T12:46:56.735Z,36.40
2017-03-26T12:47:57.262Z,35.31
2017-03-26T12:48:57.805Z,34.45
2017-03-26T12:49:58.331Z,34.80
2017-03-26T12:50:58.873Z,34.80
2017-03-26T12:51:59.414Z,35.07
2017-03-26T12:52:59.951Z,35.90
2017-03-26T12:54:00.482Z,38.87
2017-03-26T12:55:01.029Z,37.02
2017-03-26T12:56:01.552Z,34.30
2017-03-26T12:57:02.084Z,32.68
2017-03-26T12:58:02.608Z,33.69
2017-03-26T12:59:03.148Z,34.80
2017-03-26T13:00:03.673Z,32.66
2017-03-26T13:01:04.207Z,34.16